Fort Benton (79S)
Fort Benton, MT
Field Elevation: 2868
Lat: 47°50.71N  Long: 110°38.19W
CTAF/Unicom Freq: 122.8000
   
     For Weather-by-Phone, call 406-622-5976
Weather Advisories
2019-11-17   17:30 Z
Altimeter 29.84" Hg
Wind 180° @ 19 KT
Gusts 25 KT
Visibility 10 SM
Temperature 12° C (54° F)
Dewpoint 3° C (37° F)
Relative Humidity 57%
Density Altitude --
Condensation Altitude 7,300 feet
Wind and Runways
Indicated Runway = 14
Headwind = 15 kt
Crosswind = 12 kt
History
 
 
 
More Info
NOAA Forecast
 
 
About Us
Belfort Instrument
 
 
FAA Disclaimer: The data displayed is for advisory purposes only and is not to be used for flight planning or operations. For official data, please call 406-622-5976 to hear the current automated AWOS voice message.
  METAR 79S 171730Z AUTO 18019G25KT 10 SM 12/03 A2984